Time;durP1;ratioP1;P1;durP2;ratioP2;P2;SDS_P1;SDS_P2;PMS_P1;PMS_P2;Temp;Humidity;BMP_temperature;BMP_pressure;BME280_temperature;BME280_humidity;BME280_pressure;Samples;Min_cycle;Max_cycle;Signal;HPM_P1;HPM_P2
2023/03/27 00:02:19;;;;;;;5.72;2.10;;;5.10;99.90;;;;;;5056806;28;20550;-49
2023/03/27 00:04:44;;;;;;;3.08;1.50;;;5.10;99.90;;;;;;5056699;28;20501;-45
2023/03/27 00:07:11;;;;;;;9.00;2.20;;;5.10;99.90;;;;;;5058384;28;20041;-45
2023/03/27 00:09:37;;;;;;;3.08;1.70;;;5.10;99.90;;;;;;5060695;28;20028;-47
2023/03/27 00:12:04;;;;;;;2.90;1.80;;;5.10;99.90;;;;;;5054310;28;20013;-47
2023/03/27 00:14:30;;;;;;;3.95;2.45;;;5.00;99.90;;;;;;5059656;28;20040;-46
2023/03/27 00:16:59;;;;;;;4.80;1.77;;;5.10;99.90;;;;;;5060564;28;20017;-46
2023/03/27 00:19:25;;;;;;;3.92;1.80;;;5.00;99.90;;;;;;5064392;28;20031;-45
2023/03/27 00:21:52;;;;;;;4.63;1.80;;;5.00;99.90;;;;;;5055178;28;20028;-46
2023/03/27 00:24:17;;;;;;;6.38;1.60;;;5.00;99.90;;;;;;5063629;28;20059;-45
2023/03/27 00:26:43;;;;;;;2.58;1.38;;;4.90;99.90;;;;;;5056873;28;20025;-47
2023/03/27 00:29:12;;;;;;;4.47;1.50;;;4.90;99.90;;;;;;5060375;28;20024;-48
2023/03/27 00:31:38;;;;;;;5.32;1.85;;;4.90;99.90;;;;;;5050870;28;20021;-44
2023/03/27 00:34:04;;;;;;;3.20;1.63;;;4.70;99.90;;;;;;5052021;28;20390;-46
2023/03/27 00:36:30;;;;;;;3.75;1.42;;;4.70;99.90;;;;;;5052175;28;20020;-45
2023/03/27 00:38:55;;;;;;;7.70;1.52;;;4.60;99.90;;;;;;5052067;28;20017;-45
2023/03/27 00:41:22;;;;;;;5.07;2.30;;;4.60;99.90;;;;;;5059040;28;20023;-45
2023/03/27 00:43:51;;;;;;;4.15;1.25;;;4.50;99.90;;;;;;5060173;28;20194;-46
2023/03/27 00:46:41;;;;;;;3.95;1.08;;;4.50;99.90;;;;;;5060181;28;20051;-45
2023/03/27 00:49:09;;;;;;;5.78;1.23;;;4.40;99.90;;;;;;5061425;28;20035;-45
2023/03/27 00:51:37;;;;;;;5.57;1.25;;;4.40;99.90;;;;;;5063254;28;20055;-45
2023/03/27 00:54:05;;;;;;;3.25;1.17;;;4.30;99.90;;;;;;5062601;28;20383;-45
2023/03/27 00:56:32;;;;;;;3.78;1.23;;;4.30;99.90;;;;;;5059734;28;20021;-45
2023/03/27 00:59:02;;;;;;;3.30;1.20;;;4.30;99.90;;;;;;5058647;28;20021;-45
2023/03/27 01:01:29;;;;;;;4.37;1.00;;;4.30;99.90;;;;;;5051481;28;20107;-44
2023/03/27 01:03:59;;;;;;;5.95;1.63;;;4.30;99.90;;;;;;5059477;28;20020;-45
2023/03/27 01:06:25;;;;;;;6.00;1.42;;;4.20;99.90;;;;;;5042976;28;20043;-45
2023/03/27 01:08:51;;;;;;;6.65;1.05;;;4.10;99.90;;;;;;5058580;28;20028;-45
2023/03/27 01:12:05;;;;;;;8.43;1.38;;;4.10;99.90;;;;;;5051934;28;20025;-45
2023/03/27 01:15:03;;;;;;;5.25;1.02;;;4.00;99.90;;;;;;5067589;28;20079;-45
2023/03/27 01:17:34;;;;;;;7.57;1.80;;;3.90;99.90;;;;;;5029929;28;20040;-46
2023/03/27 01:20:06;;;;;;;10.95;1.50;;;3.80;99.90;;;;;;5063291;28;20024;-45
2023/03/27 01:22:43;;;;;;;6.55;1.77;;;3.80;99.90;;;;;;5059301;28;20013;-46
2023/03/27 01:25:49;;;;;;;3.38;1.05;;;3.70;99.90;;;;;;5060047;28;20370;-45
2023/03/27 01:28:45;;;;;;;5.65;1.30;;;3.70;99.90;;;;;;5066527;28;20123;-45
2023/03/27 01:31:21;;;;;;;9.32;1.75;;;3.60;99.90;;;;;;5051360;28;20429;-46
2023/03/27 01:34:01;;;;;;;4.05;1.35;;;3.50;99.90;;;;;;5051340;28;20028;-45
2023/03/27 01:36:33;;;;;;;4.43;1.38;;;3.50;99.90;;;;;;5059400;28;20556;-46
2023/03/27 01:39:29;;;;;;;4.10;1.35;;;3.40;99.90;;;;;;5058171;28;20033;-46
2023/03/27 01:42:09;;;;;;;2.58;1.15;;;3.40;99.90;;;;;;5059840;28;20013;-46
2023/03/27 01:44:47;;;;;;;5.53;1.40;;;3.30;99.90;;;;;;5051256;28;20028;-46
2023/03/27 01:47:26;;;;;;;4.30;0.98;;;3.30;99.90;;;;;;5058570;28;20107;-46
2023/03/27 01:50:05;;;;;;;6.22;1.65;;;3.30;99.90;;;;;;5057842;28;20021;-46
2023/03/27 01:52:35;;;;;;;3.55;1.33;;;3.20;99.90;;;;;;5058823;28;20020;-45
2023/03/27 01:55:08;;;;;;;4.37;1.23;;;3.20;99.90;;;;;;5050536;28;20071;-46
2023/03/27 01:57:59;;;;;;;9.10;1.50;;;3.10;99.90;;;;;;5057300;28;20053;-46
2023/03/27 02:00:26;;;;;;;6.35;1.48;;;3.00;99.90;;;;;;5057764;28;20075;-47
2023/03/27 02:02:57;;;;;;;4.97;1.25;;;3.00;99.90;;;;;;5058019;28;20013;-46
2023/03/27 02:05:28;;;;;;;;;;;3.00;99.90;;;;;;5054528;28;20017;-45
2023/03/27 02:08:10;;;;;;;5.47;1.25;;;2.90;99.90;;;;;;5055021;28;20369;-46
2023/03/27 02:10:40;;;;;;;9.93;1.38;;;2.90;99.90;;;;;;5043682;28;20095;-45
2023/03/27 02:13:20;;;;;;;4.28;1.35;;;2.80;99.90;;;;;;5055513;28;20033;-45
2023/03/27 02:15:48;;;;;;;7.25;1.75;;;2.80;99.90;;;;;;5041474;28;20225;-46
2023/03/27 02:18:20;;;;;;;3.67;1.17;;;2.80;99.90;;;;;;5067003;28;20060;-46
2023/03/27 02:20:46;;;;;;;4.25;1.20;;;2.70;99.90;;;;;;5048961;28;20027;-45
2023/03/27 02:23:12;;;;;;;3.25;1.23;;;2.70;99.90;;;;;;5040725;28;20087;-46
2023/03/27 02:25:40;;;;;;;5.55;1.33;;;2.70;99.90;;;;;;5049924;28;20064;-46
2023/03/27 02:28:30;;;;;;;8.38;1.38;;;2.70;99.90;;;;;;5048533;28;20017;-45
2023/03/27 02:31:22;;;;;;;3.50;1.17;;;2.60;99.90;;;;;;5046590;28;20024;-46
2023/03/27 02:34:12;;;;;;;5.93;1.73;;;2.60;99.90;;;;;;5044565;28;20017;-45
2023/03/27 02:37:05;;;;;;;10.13;1.50;;;2.50;99.90;;;;;;5046995;28;20221;-48
2023/03/27 02:39:33;;;;;;;5.53;1.55;;;2.40;99.90;;;;;;5044454;28;20260;-45
2023/03/27 02:42:07;;;;;;;11.13;1.77;;;2.30;99.90;;;;;;5046953;28;20018;-45
2023/03/27 02:44:43;;;;;;;10.88;1.45;;;2.30;99.90;;;;;;5052584;28;20009;-46
2023/03/27 02:47:16;;;;;;;5.22;1.73;;;2.30;99.90;;;;;;5058737;28;20033;-46
2023/03/27 02:49:51;;;;;;;7.75;1.60;;;2.20;99.90;;;;;;5048378;28;20025;-46
2023/03/27 02:52:22;;;;;;;5.47;1.67;;;2.20;99.90;;;;;;5049658;28;20029;-47
2023/03/27 02:54:55;;;;;;;7.90;1.67;;;2.20;99.90;;;;;;5048276;28;20057;-46
2023/03/27 02:57:25;;;;;;;6.93;2.15;;;2.20;99.90;;;;;;5048705;28;20386;-47
2023/03/27 02:59:59;;;;;;;7.10;1.48;;;2.10;99.90;;;;;;5058069;28;20363;-45
2023/03/27 03:02:32;;;;;;;12.80;2.05;;;2.10;99.90;;;;;;5049485;28;20017;-45
2023/03/27 03:05:11;;;;;;;4.15;1.67;;;2.10;99.90;;;;;;5049327;28;20021;-50
2023/03/27 03:07:37;;;;;;;4.32;1.45;;;2.10;99.90;;;;;;5049198;28;20032;-45
2023/03/27 03:10:06;;;;;;;3.97;1.55;;;2.00;99.90;;;;;;5049089;28;20410;-45
2023/03/27 03:12:31;;;;;;;4.65;1.45;;;1.90;99.90;;;;;;5049659;28;20336;-45
2023/03/27 03:14:57;;;;;;;6.43;1.60;;;1.90;99.90;;;;;;5056283;28;20475;-45
2023/03/27 03:17:22;;;;;;;3.97;1.20;;;1.90;99.90;;;;;;5047132;28;20064;-48
2023/03/27 03:19:48;;;;;;;5.60;1.70;;;1.90;99.90;;;;;;5048888;28;20025;-46
2023/03/27 03:22:14;;;;;;;5.53;1.38;;;1.80;99.90;;;;;;5047593;28;20492;-45
2023/03/27 03:24:40;;;;;;;11.77;1.70;;;1.80;99.90;;;;;;5043592;28;20028;-46
2023/03/27 03:27:07;;;;;;;5.93;1.55;;;1.70;99.90;;;;;;5041947;28;20389;-45
2023/03/27 03:29:35;;;;;;;5.80;1.42;;;1.70;99.90;;;;;;5045511;28;20372;-46
2023/03/27 03:32:07;;;;;;;8.60;2.10;;;1.60;99.90;;;;;;5046580;28;20017;-45
2023/03/27 03:34:32;;;;;;;4.43;1.75;;;1.60;99.90;;;;;;5048244;28;20374;-45
2023/03/27 03:36:59;;;;;;;9.70;1.67;;;1.60;99.90;;;;;;5039928;28;20025;-45
2023/03/27 03:39:24;;;;;;;14.77;1.85;;;1.60;99.90;;;;;;5049216;28;20701;-46
2023/03/27 03:41:50;;;;;;;7.00;2.78;;;1.50;99.90;;;;;;5049774;28;20043;-45
2023/03/27 03:44:16;;;;;;;5.78;1.65;;;1.50;99.90;;;;;;5057264;28;20013;-45
2023/03/27 03:46:42;;;;;;;4.82;1.25;;;1.50;99.90;;;;;;5056435;28;20060;-45
2023/03/27 03:49:08;;;;;;;5.00;1.63;;;1.50;99.90;;;;;;5057186;28;20048;-46
2023/03/27 03:51:34;;;;;;;5.05;1.50;;;1.60;99.90;;;;;;5048544;28;20098;-44
2023/03/27 03:54:00;;;;;;;13.00;2.55;;;1.50;99.90;;;;;;5056332;28;20579;-45
2023/03/27 03:56:28;;;;;;;9.38;2.30;;;1.50;99.90;;;;;;5056830;28;20041;-45
2023/03/27 03:58:54;;;;;;;12.30;1.75;;;1.40;99.90;;;;;;5048560;28;20104;-45
2023/03/27 04:01:20;;;;;;;6.97;1.38;;;1.40;99.90;;;;;;5056515;28;20154;-45
2023/03/27 04:03:46;;;;;;;8.13;2.03;;;1.40;99.90;;;;;;5039298;28;20025;-47
2023/03/27 04:06:12;;;;;;;10.77;2.47;;;1.40;99.90;;;;;;5046597;28;20513;-46
2023/03/27 04:08:38;;;;;;;9.48;1.33;;;1.40;99.90;;;;;;5045678;28;20119;-45
2023/03/27 04:11:04;;;;;;;6.38;1.85;;;1.40;99.90;;;;;;5046900;28;20037;-45
2023/03/27 04:13:30;;;;;;;5.97;2.00;;;1.30;99.90;;;;;;5055273;28;20021;-45
2023/03/27 04:15:55;;;;;;;6.30;1.40;;;1.30;99.90;;;;;;5046959;28;20024;-47
2023/03/27 04:18:29;;;;;;;7.47;1.73;;;1.30;99.90;;;;;;5055499;28;20544;-45
2023/03/27 04:20:57;;;;;;;9.90;1.88;;;1.20;99.90;;;;;;5048391;28;20021;-46
2023/03/27 04:23:29;;;;;;;5.35;2.17;;;1.20;99.90;;;;;;5057200;28;20029;-49
2023/03/27 04:26:02;;;;;;;5.15;1.98;;;1.20;99.90;;;;;;5054696;28;20711;-48
2023/03/27 04:28:33;;;;;;;10.98;2.17;;;1.20;99.90;;;;;;5057382;28;20029;-45
2023/03/27 04:31:05;;;;;;;10.88;2.15;;;1.20;99.90;;;;;;5048426;28;20063;-47
2023/03/27 04:33:38;;;;;;;8.05;1.98;;;1.30;99.90;;;;;;5047004;28;20096;-40
2023/03/27 04:36:07;;;;;;;9.10;2.63;;;1.30;99.90;;;;;;5047545;28;20017;-41
2023/03/27 04:38:35;;;;;;;16.50;2.70;;;1.30;99.90;;;;;;5046694;28;20072;-41
2023/03/27 04:41:01;;;;;;;10.38;1.75;;;1.30;99.90;;;;;;5047902;28;20052;-41
2023/03/27 04:43:26;;;;;;;5.72;1.30;;;1.40;99.90;;;;;;5048077;28;20057;-40
2023/03/27 04:45:52;;;;;;;10.60;1.80;;;1.30;99.90;;;;;;5047595;28;20021;-40
2023/03/27 04:48:19;;;;;;;5.45;2.08;;;1.30;99.90;;;;;;5048207;28;20029;-40
2023/03/27 04:50:49;;;;;;;9.77;1.60;;;1.30;99.90;;;;;;5047835;28;20025;-41
2023/03/27 04:53:22;;;;;;;8.25;2.03;;;1.30;99.90;;;;;;5047697;28;20049;-40
2023/03/27 04:55:49;;;;;;;7.88;2.03;;;1.30;99.90;;;;;;5047760;28;20029;-40
2023/03/27 04:58:16;;;;;;;7.78;1.98;;;1.30;99.90;;;;;;5048471;28;20036;-40
2023/03/27 05:00:49;;;;;;;15.43;2.88;;;1.30;99.90;;;;;;5051011;28;20080;-40
2023/03/27 05:03:17;;;;;;;10.88;2.08;;;1.30;99.90;;;;;;5051219;28;20049;-40
2023/03/27 05:05:45;;;;;;;8.77;1.88;;;1.30;99.90;;;;;;5050928;28;20067;-40
2023/03/27 05:08:11;;;;;;;12.98;2.10;;;1.30;99.90;;;;;;5050663;28;20454;-40
2023/03/27 05:10:37;;;;;;;10.55;1.65;;;1.20;99.90;;;;;;5050894;28;20475;-40
2023/03/27 05:13:03;;;;;;;10.88;3.03;;;1.30;99.90;;;;;;5050947;28;20025;-40
2023/03/27 05:15:31;;;;;;;9.15;1.75;;;1.30;99.90;;;;;;5050628;28;20048;-40
2023/03/27 05:17:56;;;;;;;8.57;2.08;;;1.20;99.90;;;;;;5050619;28;20033;-40
2023/03/27 05:20:23;;;;;;;4.18;1.83;;;1.30;99.90;;;;;;5050498;28;20468;-40
2023/03/27 05:22:51;;;;;;;9.30;1.70;;;1.30;99.90;;;;;;5050337;28;20043;-40
2023/03/27 05:25:16;;;;;;;7.13;2.22;;;1.30;99.90;;;;;;5050214;28;20321;-41
2023/03/27 05:27:46;;;;;;;7.75;1.88;;;1.30;99.90;;;;;;5050603;28;20028;-40
2023/03/27 05:30:14;;;;;;;4.60;1.60;;;1.40;99.90;;;;;;5050667;28;20457;-40
2023/03/27 05:32:43;;;;;;;6.50;1.63;;;1.30;99.90;;;;;;5050403;28;20013;-40
2023/03/27 05:35:10;;;;;;;7.45;2.67;;;1.40;99.90;;;;;;5050434;28;20096;-40
2023/03/27 05:37:35;;;;;;;3.90;1.67;;;1.40;99.90;;;;;;5050039;28;20020;-41
2023/03/27 05:40:01;;;;;;;11.48;1.85;;;1.40;99.90;;;;;;5050124;28;20646;-40
2023/03/27 05:42:26;;;;;;;9.70;2.03;;;1.40;99.90;;;;;;5043251;28;20036;-40
2023/03/27 05:44:52;;;;;;;10.13;2.83;;;1.40;99.90;;;;;;5045252;28;20021;-40
2023/03/27 05:47:19;;;;;;;15.18;2.90;;;1.50;99.90;;;;;;5040063;28;21420;-40
2023/03/27 05:49:46;;;;;;;7.72;1.85;;;1.50;99.90;;;;;;5043772;28;20045;-40
2023/03/27 05:52:11;;;;;;;12.02;3.03;;;1.50;99.90;;;;;;5044800;28;20040;-41
2023/03/27 05:54:37;;;;;;;10.07;2.33;;;1.50;99.90;;;;;;5047125;28;20025;-40
2023/03/27 05:57:02;;;;;;;11.40;3.47;;;1.50;99.90;;;;;;5049202;28;20052;-40
2023/03/27 05:59:28;;;;;;;9.10;2.08;;;1.60;99.90;;;;;;5049049;28;20320;-40
2023/03/27 06:01:54;;;;;;;8.75;2.05;;;1.60;99.90;;;;;;5048378;28;20112;-40
2023/03/27 06:04:21;;;;;;;9.27;1.85;;;1.60;99.90;;;;;;5044414;28;20017;-40
2023/03/27 06:06:46;;;;;;;10.13;2.35;;;1.60;99.90;;;;;;5050823;28;20032;-40
2023/03/27 06:09:12;;;;;;;15.68;3.60;;;1.70;99.90;;;;;;5048284;28;20486;-45
2023/03/27 06:11:39;;;;;;;9.25;2.72;;;1.70;99.90;;;;;;5047278;28;20020;-46
2023/03/27 06:14:05;;;;;;;13.85;2.22;;;1.70;99.90;;;;;;5047321;28;20471;-46
2023/03/27 06:16:30;;;;;;;19.02;2.53;;;1.80;99.90;;;;;;5043552;28;20037;-45
2023/03/27 06:18:56;;;;;;;9.45;2.17;;;1.80;99.90;;;;;;5056560;28;20037;-46
2023/03/27 06:21:22;;;;;;;9.70;2.55;;;1.90;99.90;;;;;;5058523;28;20025;-45
2023/03/27 06:23:47;;;;;;;8.63;2.42;;;1.90;99.90;;;;;;5056403;28;20016;-40
2023/03/27 06:26:14;;;;;;;5.65;2.42;;;2.00;99.90;;;;;;5061747;28;20105;-40
2023/03/27 06:28:39;;;;;;;11.32;2.40;;;2.00;99.90;;;;;;5052891;28;20028;-45
2023/03/27 06:31:05;;;;;;;13.57;2.72;;;2.10;99.90;;;;;;5057719;28;20028;-40
2023/03/27 06:33:31;;;;;;;11.30;2.33;;;2.10;99.90;;;;;;5049070;28;20082;-40
2023/03/27 06:35:59;;;;;;;12.18;3.08;;;2.20;99.90;;;;;;5049078;28;20029;-40
2023/03/27 06:38:26;;;;;;;12.82;2.60;;;2.30;99.90;;;;;;5048880;28;20028;-40
2023/03/27 06:40:52;;;;;;;6.60;2.13;;;2.30;99.90;;;;;;5048301;28;20063;-40
2023/03/27 06:43:21;;;;;;;8.43;2.17;;;2.40;99.90;;;;;;5048229;28;20126;-40
2023/03/27 06:45:48;;;;;;;8.68;2.15;;;2.50;99.90;;;;;;5049127;28;20649;-40
2023/03/27 06:48:15;;;;;;;9.98;1.77;;;2.60;99.90;;;;;;5046944;28;20068;-47
2023/03/27 06:50:42;;;;;;;8.73;1.65;;;2.70;99.90;;;;;;5046161;28;20040;-45
2023/03/27 06:53:08;;;;;;;10.18;2.92;;;2.70;99.90;;;;;;5053299;28;20028;-45
2023/03/27 06:55:35;;;;;;;9.20;1.95;;;2.90;99.90;;;;;;5052671;28;20071;-46
2023/03/27 06:58:02;;;;;;;7.43;1.83;;;2.90;99.90;;;;;;5050175;28;20031;-40
2023/03/27 07:00:31;;;;;;;14.10;2.92;;;3.00;99.90;;;;;;5051266;28;20079;-40
2023/03/27 07:02:58;;;;;;;10.10;2.97;;;3.00;99.90;;;;;;5048830;28;20074;-40
2023/03/27 07:05:27;;;;;;;14.43;2.50;;;3.00;99.90;;;;;;5049717;28;20045;-40
2023/03/27 07:07:53;;;;;;;8.15;2.90;;;3.10;99.90;;;;;;5049900;28;20097;-42
2023/03/27 07:10:20;;;;;;;10.85;2.17;;;3.10;99.90;;;;;;5057153;28;20175;-46
2023/03/27 07:12:47;;;;;;;12.80;2.08;;;3.00;99.90;;;;;;5056007;28;20533;-46
2023/03/27 07:15:13;;;;;;;7.88;2.38;;;3.10;99.90;;;;;;5057874;28;20111;-46
2023/03/27 07:17:43;;;;;;;12.02;2.83;;;3.20;99.90;;;;;;5057599;28;20120;-45
2023/03/27 07:20:10;;;;;;;;;;;3.20;99.90;;;;;;5055760;28;20497;-46
2023/03/27 07:22:35;;;;;;;12.55;2.58;;;3.30;99.90;;;;;;5057136;28;20760;-46
2023/03/27 07:25:01;;;;;;;4.78;2.05;;;3.40;99.90;;;;;;5055133;28;20024;-41
2023/03/27 07:27:27;;;;;;;15.38;2.50;;;3.40;99.90;;;;;;5049304;28;20071;-41
2023/03/27 07:29:53;;;;;;;10.13;2.75;;;3.40;99.90;;;;;;5048435;28;20021;-41
2023/03/27 07:32:18;;;;;;;10.15;2.13;;;3.50;99.90;;;;;;5049606;28;20025;-41
2023/03/27 07:34:44;;;;;;;12.88;3.30;;;3.60;99.90;;;;;;5049637;28;20025;-41
2023/03/27 07:37:10;;;;;;;12.52;2.22;;;3.60;99.90;;;;;;5049193;28;20033;-41
2023/03/27 07:39:35;;;;;;;11.23;2.75;;;3.70;99.90;;;;;;5049487;28;20025;-41
2023/03/27 07:42:01;;;;;;;9.75;2.65;;;3.80;99.90;;;;;;5049615;28;20021;-41
2023/03/27 07:44:26;;;;;;;8.95;2.40;;;3.80;99.90;;;;;;5049484;28;20650;-40
2023/03/27 07:46:52;;;;;;;14.77;2.70;;;4.00;99.90;;;;;;5049839;28;20033;-46
2023/03/27 07:49:18;;;;;;;10.48;2.63;;;4.00;99.90;;;;;;5054006;28;20029;-46
2023/03/27 07:51:44;;;;;;;7.90;2.53;;;4.10;99.90;;;;;;5065000;28;20104;-41
2023/03/27 07:54:12;;;;;;;12.60;2.33;;;4.10;99.90;;;;;;5048595;28;20025;-41
2023/03/27 07:56:38;;;;;;;6.65;2.38;;;4.20;99.90;;;;;;5047872;28;20025;-41
2023/03/27 07:59:05;;;;;;;12.75;2.35;;;4.30;99.90;;;;;;5049380;28;20643;-41
2023/03/27 08:01:31;;;;;;;9.02;2.47;;;4.30;99.90;;;;;;5055079;28;20455;-48
2023/03/27 08:03:56;;;;;;;8.13;2.60;;;4.40;99.90;;;;;;5055384;28;20021;-47
2023/03/27 08:06:22;;;;;;;6.70;2.40;;;4.60;99.90;;;;;;5048985;28;20024;-41
2023/03/27 08:08:49;;;;;;;13.68;2.40;;;4.70;99.90;;;;;;5048329;28;20558;-40
2023/03/27 08:11:16;;;;;;;11.10;2.33;;;4.70;99.90;;;;;;5045738;28;20083;-41
2023/03/27 08:13:41;;;;;;;11.32;2.28;;;4.80;99.90;;;;;;5049452;28;20032;-41
2023/03/27 08:16:13;;;;;;;11.27;2.33;;;5.00;99.90;;;;;;5048978;28;20029;-41
2023/03/27 08:18:40;;;;;;;11.73;2.50;;;5.30;99.90;;;;;;5048564;28;20048;-41
2023/03/27 08:21:07;;;;;;;7.85;2.00;;;5.70;99.90;;;;;;5048748;28;20071;-41
2023/03/27 08:23:33;;;;;;;7.78;1.98;;;6.00;99.90;;;;;;5056028;28;20099;-47
2023/03/27 08:26:02;;;;;;;5.28;2.05;;;6.60;99.90;;;;;;5054623;28;20032;-41
2023/03/27 08:28:30;;;;;;;12.45;2.58;;;6.50;99.90;;;;;;5051198;28;20028;-41
2023/03/27 08:30:56;;;;;;;7.85;2.20;;;6.90;99.90;;;;;;5047698;28;20425;-43
2023/03/27 08:33:22;;;;;;;7.38;2.25;;;7.80;99.90;;;;;;5050552;28;20574;-40
2023/03/27 08:35:51;;;;;;;5.28;1.75;;;9.20;99.90;;;;;;5052315;28;20683;-41
2023/03/27 08:38:17;;;;;;;6.32;1.73;;;9.50;95.80;;;;;;5051084;28;20052;-41
2023/03/27 08:40:49;;;;;;;13.82;2.42;;;9.40;95.40;;;;;;5051776;28;20045;-40
2023/03/27 08:43:29;;;;;;;6.28;1.85;;;8.80;97.10;;;;;;5052711;28;20024;-41
2023/03/27 08:46:20;;;;;;;18.10;4.60;;;8.20;97.70;;;;;;5050154;28;20021;-40
2023/03/27 08:48:56;;;;;;;7.53;1.70;;;9.10;96.60;;;;;;5050495;28;20028;-41
2023/03/27 08:51:37;;;;;;;5.63;1.70;;;9.70;95.80;;;;;;5051373;28;20489;-45
2023/03/27 08:54:24;;;;;;;4.70;1.40;;;10.60;94.10;;;;;;5051196;28;20049;-45
2023/03/27 08:56:51;;;;;;;6.90;1.48;;;11.60;90.20;;;;;;5053876;28;20021;-41
2023/03/27 08:59:20;;;;;;;6.10;1.65;;;11.80;86.90;;;;;;5050677;28;20676;-41
2023/03/27 09:01:48;;;;;;;6.50;1.75;;;12.30;83.80;;;;;;5054813;28;20079;-45
2023/03/27 09:04:52;;;;;;;1.50;0.98;;;12.10;82.70;;;;;;5053582;28;20479;-45
2023/03/27 09:07:20;;;;;;;6.30;1.65;;;13.30;83.70;;;;;;5047705;28;20371;-46
2023/03/27 09:10:14;;;;;;;3.28;1.50;;;13.10;82.10;;;;;;5052229;28;20418;-47
2023/03/27 09:13:01;;;;;;;4.13;1.67;;;13.40;80.40;;;;;;5054025;28;20025;-47
2023/03/27 09:15:30;;;;;;;4.97;1.40;;;13.70;77.80;;;;;;5054947;28;20121;-47
2023/03/27 09:18:02;;;;;;;4.90;1.70;;;12.80;78.00;;;;;;5067988;28;20068;-45
2023/03/27 09:20:37;;;;;;;7.32;1.60;;;11.50;79.30;;;;;;5055511;28;20028;-45
2023/03/27 09:23:18;;;;;;;6.20;1.70;;;10.40;81.60;;;;;;5061085;28;20033;-48
2023/03/27 09:25:52;;;;;;;3.65;1.40;;;11.60;81.10;;;;;;5055954;28;20478;-46
2023/03/27 09:28:27;;;;;;;4.35;1.30;;;11.90;81.90;;;;;;5055563;28;20106;-43
2023/03/27 09:30:53;;;;;;;5.80;1.55;;;12.40;79.20;;;;;;5046270;28;20462;-41
2023/03/27 09:33:19;;;;;;;5.45;1.50;;;12.10;78.50;;;;;;5050251;28;20118;-41
2023/03/27 09:35:45;;;;;;;4.18;1.75;;;11.60;78.90;;;;;;5048176;28;20051;-41
2023/03/27 09:38:32;;;;;;;5.10;1.70;;;12.70;82.70;;;;;;5050064;28;20406;-41
2023/03/27 09:41:02;;;;;;;7.03;1.60;;;13.20;75.20;;;;;;5058321;28;20112;-41
2023/03/27 09:44:02;;;;;;;4.03;1.50;;;13.00;74.70;;;;;;5049684;28;20036;-41
2023/03/27 09:46:28;;;;;;;6.90;1.55;;;12.70;72.50;;;;;;5047420;28;20132;-41
2023/03/27 09:49:13;;;;;;;7.05;1.80;;;13.30;73.70;;;;;;5050355;28;20021;-42
2023/03/27 09:51:40;;;;;;;3.78;1.45;;;14.60;73.00;;;;;;5050003;28;20548;-41
2023/03/27 09:54:08;;;;;;;6.70;1.55;;;15.80;68.50;;;;;;5050438;28;20028;-42
2023/03/27 09:56:40;;;;;;;2.90;1.55;;;15.80;64.90;;;;;;5049640;28;20025;-42
2023/03/27 09:59:23;;;;;;;3.63;1.65;;;15.60;66.60;;;;;;5050335;28;20025;-43
2023/03/27 10:01:57;;;;;;;6.85;1.75;;;16.70;62.80;;;;;;5054289;28;20030;-41
2023/03/27 10:04:24;;;;;;;3.38;1.45;;;16.40;63.10;;;;;;5055052;28;20017;-43
2023/03/27 10:07:00;;;;;;;3.78;1.40;;;14.80;62.90;;;;;;5047667;28;20016;-41
2023/03/27 10:09:33;;;;;;;8.68;2.13;;;13.60;65.80;;;;;;5047006;28;20053;-40
2023/03/27 10:12:15;;;;;;;3.75;1.30;;;12.10;68.10;;;;;;5051366;28;20039;-40
2023/03/27 10:14:44;;;;;;;6.35;1.63;;;11.30;71.60;;;;;;5058343;28;20102;-41
2023/03/27 10:17:50;;;;;;;9.88;2.40;;;10.30;71.90;;;;;;5052498;28;20017;-41
2023/03/27 10:20:18;;;;;;;5.88;1.48;;;9.60;75.80;;;;;;5042443;28;20418;-41
2023/03/27 10:22:55;;;;;;;8.15;1.92;;;8.60;84.60;;;;;;5050384;28;21073;-40
2023/03/27 10:25:29;;;;;;;5.00;1.20;;;7.90;88.80;;;;;;5053359;28;20029;-46
2023/03/27 10:28:07;;;;;;;4.80;1.52;;;7.10;93.40;;;;;;5054606;28;20111;-47
2023/03/27 10:30:35;;;;;;;4.47;1.55;;;6.10;99.90;;;;;;5055815;28;20061;-45
2023/03/27 10:33:01;;;;;;;3.63;1.23;;;5.50;99.90;;;;;;5053811;28;20029;-45
2023/03/27 10:35:38;;;;;;;1.27;0.73;;;4.80;99.90;;;;;;5056738;28;20024;-47
2023/03/27 10:38:13;;;;;;;6.28;1.75;;;4.30;99.90;;;;;;5056800;28;20443;-44
2023/03/27 10:40:42;;;;;;;1.38;0.80;;;4.60;99.90;;;;;;5052485;28;20386;-45
2023/03/27 10:43:31;;;;;;;5.60;1.13;;;5.20;99.90;;;;;;5060858;28;20024;-46
2023/03/27 10:46:03;;;;;;;2.33;1.10;;;7.50;99.90;;;;;;5056436;28;20449;-46
2023/03/27 10:48:43;;;;;;;2.10;1.20;;;9.90;99.90;;;;;;5056996;28;20028;-45
2023/03/27 10:51:39;;;;;;;4.03;1.10;;;11.60;99.90;;;;;;5057308;28;20024;-45
2023/03/27 10:54:11;;;;;;;3.78;0.80;;;13.10;97.60;;;;;;5041978;28;20094;-43
2023/03/27 10:56:52;;;;;;;2.28;0.80;;;14.40;92.30;;;;;;5049135;28;20112;-44
2023/03/27 10:59:22;;;;;;;;;;;15.40;95.80;;;;;;5047363;28;20029;-44
2023/03/27 11:01:53;;;;;;;2.33;0.93;;;15.00;90.50;;;;;;5047188;28;19931;-44
2023/03/27 11:04:43;;;;;;;4.43;1.17;;;13.90;90.70;;;;;;5043654;28;20029;-43
2023/03/27 11:07:28;;;;;;;4.07;1.00;;;12.50;93.60;;;;;;5046998;28;20017;-43
2023/03/27 11:10:04;;;;;;;3.88;1.30;;;11.20;94.00;;;;;;5050285;28;20059;-44
2023/03/27 11:12:33;;;;;;;2.25;1.15;;;9.90;97.50;;;;;;5059980;28;20025;-46
2023/03/27 11:15:08;;;;;;;3.88;1.10;;;9.10;99.40;;;;;;5055916;28;20052;-45
2023/03/27 11:18:01;;;;;;;4.90;1.23;;;8.30;99.90;;;;;;5053267;28;20021;-46
2023/03/27 11:20:32;;;;;;;2.08;1.10;;;7.70;99.90;;;;;;5036298;28;20029;-46
2023/03/27 11:23:10;;;;;;;2.38;1.20;;;7.70;99.90;;;;;;5055979;28;20021;-46
2023/03/27 11:25:45;;;;;;;3.83;1.00;;;8.00;99.90;;;;;;5052501;28;20561;-46
2023/03/27 11:28:30;;;;;;;3.03;0.90;;;7.70;99.90;;;;;;5058613;28;20013;-45
2023/03/27 11:31:36;;;;;;;1.20;0.88;;;7.80;99.90;;;;;;5048706;28;20029;-46
2023/03/27 11:34:19;;;;;;;4.50;1.13;;;8.00;99.90;;;;;;5052218;28;20025;-49
2023/03/27 11:36:52;;;;;;;4.97;1.50;;;7.60;99.90;;;;;;5045662;28;20575;-46
2023/03/27 11:39:27;;;;;;;7.22;1.15;;;7.10;99.90;;;;;;5053673;28;20029;-45
2023/03/27 11:41:56;;;;;;;4.30;1.15;;;6.80;99.90;;;;;;5046600;28;20461;-46
2023/03/27 11:44:23;;;;;;;4.60;0.90;;;6.60;99.90;;;;;;5054958;28;20029;-45
2023/03/27 11:47:01;;;;;;;4.82;1.17;;;6.80;99.90;;;;;;5056286;28;20029;-45
2023/03/27 11:49:52;;;;;;;4.35;0.90;;;7.40;99.90;;;;;;5059050;28;20600;-46
2023/03/27 11:52:37;;;;;;;3.30;0.70;;;8.50;99.90;;;;;;5046381;28;20060;-45
2023/03/27 11:55:21;;;;;;;1.27;0.55;;;10.20;97.30;;;;;;5061658;28;20092;-46
2023/03/27 11:58:10;;;;;;;1.45;0.70;;;11.30;96.80;;;;;;5052668;28;20502;-44
2023/03/27 12:01:06;;;;;;;2.80;0.63;;;12.50;91.90;;;;;;5056290;28;20116;-44
2023/03/27 12:03:47;;;;;;;3.08;1.10;;;13.60;90.10;;;;;;5053576;28;20086;-45
2023/03/27 12:06:33;;;;;;;3.17;0.98;;;14.30;87.40;;;;;;5056739;28;20106;-45
2023/03/27 12:09:17;;;;;;;3.30;1.08;;;14.80;81.70;;;;;;5061785;28;20036;-45
2023/03/27 12:11:55;;;;;;;3.25;0.90;;;15.20;77.70;;;;;;5054129;28;20013;-46
2023/03/27 12:14:28;;;;;;;3.67;1.13;;;15.70;77.30;;;;;;5062522;28;20116;-45
2023/03/27 12:17:14;;;;;;;5.35;1.13;;;15.60;74.40;;;;;;5054728;28;20032;-45
2023/03/27 12:19:49;;;;;;;6.97;1.30;;;15.50;77.30;;;;;;5065326;28;20029;-45
2023/03/27 12:22:45;;;;;;;5.05;1.65;;;15.80;79.40;;;;;;5062273;28;20078;-45
2023/03/27 12:25:22;;;;;;;2.22;0.70;;;14.60;76.80;;;;;;5046766;28;20027;-46
2023/03/27 12:27:59;;;;;;;3.20;1.05;;;13.60;82.80;;;;;;5056279;28;20546;-45
2023/03/27 12:30:46;;;;;;;2.90;1.10;;;13.20;85.50;;;;;;5061698;28;20029;-45
2023/03/27 12:33:51;;;;;;;3.58;1.15;;;12.20;82.80;;;;;;5055224;28;20450;-45
2023/03/27 12:36:21;;;;;;;3.08;0.93;;;12.00;86.70;;;;;;5055469;28;20036;-45
2023/03/27 12:38:47;;;;;;;3.15;1.52;;;11.60;89.70;;;;;;5057016;28;20021;-44
2023/03/27 12:41:32;;;;;;;3.97;1.10;;;11.30;86.00;;;;;;5054240;28;20017;-48
2023/03/27 12:44:03;;;;;;;2.33;1.00;;;11.30;91.20;;;;;;5064922;28;20416;-44
2023/03/27 12:46:40;;;;;;;2.83;1.35;;;11.10;89.80;;;;;;5061921;28;20046;-44
2023/03/27 12:49:06;;;;;;;3.08;1.30;;;10.80;90.50;;;;;;5053104;28;20025;-44
2023/03/27 12:51:38;;;;;;;5.60;1.73;;;10.40;91.80;;;;;;5054000;28;20021;-45
2023/03/27 12:54:22;;;;;;;3.00;1.27;;;9.90;91.30;;;;;;5055454;28;20029;-45
2023/03/27 12:57:11;;;;;;;2.15;1.10;;;9.10;93.00;;;;;;5055481;28;20021;-44
2023/03/27 12:59:47;;;;;;;6.50;1.10;;;8.30;96.50;;;;;;5056332;28;20036;-44
2023/03/27 13:02:40;;;;;;;3.85;1.08;;;7.60;99.30;;;;;;5054505;28;20032;-44
2023/03/27 13:05:11;;;;;;;3.58;1.00;;;7.10;99.90;;;;;;5054381;28;20434;-44
2023/03/27 13:07:56;;;;;;;1.58;0.90;;;6.50;99.90;;;;;;5057278;28;20021;-45
2023/03/27 13:10:49;;;;;;;4.57;0.93;;;6.10;99.90;;;;;;5049209;28;20025;-44
2023/03/27 13:13:31;;;;;;;3.75;1.00;;;6.40;99.90;;;;;;5058731;28;20523;-49
2023/03/27 13:16:26;;;;;;;3.47;0.93;;;6.40;99.90;;;;;;5056948;28;20029;-44
2023/03/27 13:19:14;;;;;;;2.08;0.85;;;6.30;99.90;;;;;;5060567;28;20029;-45
2023/03/27 13:22:10;;;;;;;2.70;0.88;;;6.00;99.90;;;;;;5052780;28;20021;-44